sensor_id;sensor_type;location;lat;lon;timestamp;pressure;altitude;pressure_sealevel;temperature;humidity
15817;BME280;8009;50.070;8.232;2023-04-01T00:01:21;98251.78;;;11.31;68.09
15817;BME280;8009;50.070;8.232;2023-04-01T00:03:54;98249.59;;;11.35;68.37
15817;BME280;8009;50.070;8.232;2023-04-01T00:06:22;98257.53;;;11.36;68.25
15817;BME280;8009;50.070;8.232;2023-04-01T00:08:52;98256.56;;;11.03;69.71
15817;BME280;8009;50.070;8.232;2023-04-01T00:11:21;98261.31;;;11.09;68.57
15817;BME280;8009;50.070;8.232;2023-04-01T00:13:49;98262.06;;;11.28;68.74
15817;BME280;8009;50.070;8.232;2023-04-01T00:16:18;98260.41;;;11.35;68.79
15817;BME280;8009;50.070;8.232;2023-04-01T00:18:46;98255.09;;;11.17;69.38
15817;BME280;8009;50.070;8.232;2023-04-01T00:21:18;98250.59;;;11.26;69.38
15817;BME280;8009;50.070;8.232;2023-04-01T00:23:47;98251.81;;;11.39;69.29
15817;BME280;8009;50.070;8.232;2023-04-01T00:26:16;98249.88;;;11.23;69.38
15817;BME280;8009;50.070;8.232;2023-04-01T00:28:45;98250.66;;;11.08;70.01
15817;BME280;8009;50.070;8.232;2023-04-01T00:31:14;98248.66;;;11.18;69.08
15817;BME280;8009;50.070;8.232;2023-04-01T00:33:42;98245.72;;;11.37;68.79
15817;BME280;8009;50.070;8.232;2023-04-01T00:36:12;98250.09;;;11.30;68.74
15817;BME280;8009;50.070;8.232;2023-04-01T00:38:44;98245.53;;;11.31;68.87
15817;BME280;8009;50.070;8.232;2023-04-01T00:41:13;98245.66;;;11.21;69.24
15817;BME280;8009;50.070;8.232;2023-04-01T00:43:43;98239.25;;;11.22;69.85
15817;BME280;8009;50.070;8.232;2023-04-01T00:46:11;98241.50;;;11.35;68.71
15817;BME280;8009;50.070;8.232;2023-04-01T00:48:42;98251.44;;;11.26;68.61
15817;BME280;8009;50.070;8.232;2023-04-01T00:51:15;98243.63;;;11.15;69.12
15817;BME280;8009;50.070;8.232;2023-04-01T00:53:50;98249.03;;;11.15;70.13
15817;BME280;8009;50.070;8.232;2023-04-01T00:56:21;98248.69;;;10.84;70.14
15817;BME280;8009;50.070;8.232;2023-04-01T00:58:55;98236.16;;;11.09;69.88
15817;BME280;8009;50.070;8.232;2023-04-01T01:01:25;98239.44;;;11.29;69.37
15817;BME280;8009;50.070;8.232;2023-04-01T01:03:54;98239.72;;;11.17;69.66
15817;BME280;8009;50.070;8.232;2023-04-01T01:06:35;98232.28;;;11.11;69.37
15817;BME280;8009;50.070;8.232;2023-04-01T01:09:15;98234.00;;;11.20;69.20
15817;BME280;8009;50.070;8.232;2023-04-01T01:11:50;98233.56;;;11.33;69.23
15817;BME280;8009;50.070;8.232;2023-04-01T01:14:33;98241.31;;;11.36;69.05
15817;BME280;8009;50.070;8.232;2023-04-01T01:17:10;98240.78;;;11.33;68.64
15817;BME280;8009;50.070;8.232;2023-04-01T01:20:23;98225.53;;;11.15;68.98
15817;BME280;8009;50.070;8.232;2023-04-01T01:23:08;98228.00;;;11.43;68.75
15817;BME280;8009;50.070;8.232;2023-04-01T01:25:52;98224.53;;;11.16;68.33
15817;BME280;8009;50.070;8.232;2023-04-01T01:28:36;98230.22;;;11.05;69.18
15817;BME280;8009;50.070;8.232;2023-04-01T01:31:16;98232.59;;;11.08;68.42
15817;BME280;8009;50.070;8.232;2023-04-01T01:33:53;98228.06;;;11.17;68.86
15817;BME280;8009;50.070;8.232;2023-04-01T01:36:31;98236.31;;;11.07;69.35
15817;BME280;8009;50.070;8.232;2023-04-01T01:39:03;98232.94;;;11.13;68.36
15817;BME280;8009;50.070;8.232;2023-04-01T01:41:34;98226.91;;;11.19;68.63
15817;BME280;8009;50.070;8.232;2023-04-01T01:44:04;98233.47;;;11.17;67.94
15817;BME280;8009;50.070;8.232;2023-04-01T01:46:38;98234.00;;;11.20;68.92
15817;BME280;8009;50.070;8.232;2023-04-01T01:49:09;98233.13;;;11.12;69.16
15817;BME280;8009;50.070;8.232;2023-04-01T01:51:41;98222.25;;;10.95;69.38
15817;BME280;8009;50.070;8.232;2023-04-01T01:54:12;98222.59;;;10.92;69.30
15817;BME280;8009;50.070;8.232;2023-04-01T01:56:45;98224.09;;;10.95;68.52
15817;BME280;8009;50.070;8.232;2023-04-01T01:59:15;98230.28;;;10.87;69.93
15817;BME280;8009;50.070;8.232;2023-04-01T02:01:48;98210.28;;;10.98;70.53
15817;BME280;8009;50.070;8.232;2023-04-01T02:04:18;98221.25;;;10.96;69.16
15817;BME280;8009;50.070;8.232;2023-04-01T02:06:53;98220.63;;;11.11;69.14
15817;BME280;8009;50.070;8.232;2023-04-01T02:09:22;98215.31;;;11.35;69.49
15817;BME280;8009;50.070;8.232;2023-04-01T02:11:52;98211.88;;;11.25;66.58
15817;BME280;8009;50.070;8.232;2023-04-01T02:14:25;98211.03;;;11.16;66.90
15817;BME280;8009;50.070;8.232;2023-04-01T02:16:57;98218.91;;;11.02;67.27
15817;BME280;8009;50.070;8.232;2023-04-01T02:19:32;98211.66;;;11.10;67.62
15817;BME280;8009;50.070;8.232;2023-04-01T02:22:09;98211.97;;;10.99;68.68
15817;BME280;8009;50.070;8.232;2023-04-01T02:24:40;98219.72;;;10.68;68.72
15817;BME280;8009;50.070;8.232;2023-04-01T02:27:11;98213.78;;;10.90;68.75
15817;BME280;8009;50.070;8.232;2023-04-01T02:29:39;98219.31;;;10.81;68.45
15817;BME280;8009;50.070;8.232;2023-04-01T02:32:08;98215.16;;;10.94;68.66
15817;BME280;8009;50.070;8.232;2023-04-01T02:34:40;98212.13;;;10.97;69.89
15817;BME280;8009;50.070;8.232;2023-04-01T02:37:13;98213.63;;;10.92;69.41
15817;BME280;8009;50.070;8.232;2023-04-01T02:39:42;98220.41;;;10.96;68.72
15817;BME280;8009;50.070;8.232;2023-04-01T02:42:10;98209.22;;;10.91;69.01
15817;BME280;8009;50.070;8.232;2023-04-01T02:44:39;98215.22;;;10.68;70.18
15817;BME280;8009;50.070;8.232;2023-04-01T02:47:07;98217.75;;;10.70;70.31
15817;BME280;8009;50.070;8.232;2023-04-01T02:49:35;98214.63;;;10.91;69.83
15817;BME280;8009;50.070;8.232;2023-04-01T02:52:04;98206.22;;;11.02;70.04
15817;BME280;8009;50.070;8.232;2023-04-01T02:54:36;98202.00;;;10.91;69.12
15817;BME280;8009;50.070;8.232;2023-04-01T02:57:04;98203.44;;;10.78;70.41
15817;BME280;8009;50.070;8.232;2023-04-01T02:59:33;98208.59;;;10.97;70.38
15817;BME280;8009;50.070;8.232;2023-04-01T03:02:01;98208.47;;;10.72;72.18
15817;BME280;8009;50.070;8.232;2023-04-01T03:04:29;98206.25;;;10.68;71.40
15817;BME280;8009;50.070;8.232;2023-04-01T03:06:58;98211.88;;;10.83;69.98
15817;BME280;8009;50.070;8.232;2023-04-01T03:09:26;98199.19;;;10.75;71.74
15817;BME280;8009;50.070;8.232;2023-04-01T03:11:58;98213.38;;;10.77;71.57
15817;BME280;8009;50.070;8.232;2023-04-01T03:14:26;98208.69;;;10.87;70.51
15817;BME280;8009;50.070;8.232;2023-04-01T03:16:54;98210.19;;;10.82;70.56
15817;BME280;8009;50.070;8.232;2023-04-01T03:19:23;98213.81;;;10.64;71.57
15817;BME280;8009;50.070;8.232;2023-04-01T03:21:51;98210.44;;;10.18;72.37
15817;BME280;8009;50.070;8.232;2023-04-01T03:24:20;98204.88;;;10.38;73.07
15817;BME280;8009;50.070;8.232;2023-04-01T03:26:49;98201.19;;;10.65;72.47
15817;BME280;8009;50.070;8.232;2023-04-01T03:29:20;98209.59;;;10.62;71.38
15817;BME280;8009;50.070;8.232;2023-04-01T03:31:48;98204.81;;;10.56;71.81
15817;BME280;8009;50.070;8.232;2023-04-01T03:34:16;98207.47;;;10.73;71.91
15817;BME280;8009;50.070;8.232;2023-04-01T03:36:45;98200.03;;;10.76;71.77
15817;BME280;8009;50.070;8.232;2023-04-01T03:39:13;98208.09;;;10.67;71.64
15817;BME280;8009;50.070;8.232;2023-04-01T03:41:43;98207.22;;;10.59;72.71
15817;BME280;8009;50.070;8.232;2023-04-01T03:44:12;98202.03;;;10.65;72.35
15817;BME280;8009;50.070;8.232;2023-04-01T03:46:43;98201.91;;;10.75;71.90
15817;BME280;8009;50.070;8.232;2023-04-01T03:49:11;98211.59;;;10.60;72.03
15817;BME280;8009;50.070;8.232;2023-04-01T03:51:41;98211.41;;;10.53;74.22
15817;BME280;8009;50.070;8.232;2023-04-01T03:54:10;98207.69;;;10.28;73.55
15817;BME280;8009;50.070;8.232;2023-04-01T03:56:38;98203.25;;;10.45;73.27
15817;BME280;8009;50.070;8.232;2023-04-01T03:59:07;98206.44;;;10.74;72.28
15817;BME280;8009;50.070;8.232;2023-04-01T04:01:35;98203.13;;;10.55;72.79
15817;BME280;8009;50.070;8.232;2023-04-01T04:04:06;98217.25;;;10.48;72.25
15817;BME280;8009;50.070;8.232;2023-04-01T04:06:35;98213.75;;;10.56;72.53
15817;BME280;8009;50.070;8.232;2023-04-01T04:09:03;98206.94;;;10.44;73.75
15817;BME280;8009;50.070;8.232;2023-04-01T04:11:31;98205.28;;;10.77;72.20
15817;BME280;8009;50.070;8.232;2023-04-01T04:14:00;98210.25;;;10.38;73.58
15817;BME280;8009;50.070;8.232;2023-04-01T04:16:28;98216.31;;;10.32;73.86
15817;BME280;8009;50.070;8.232;2023-04-01T04:18:56;98209.13;;;10.40;73.21
15817;BME280;8009;50.070;8.232;2023-04-01T04:21:27;98214.19;;;10.43;73.81
15817;BME280;8009;50.070;8.232;2023-04-01T04:23:55;98208.81;;;10.43;73.31
15817;BME280;8009;50.070;8.232;2023-04-01T04:26:24;98218.59;;;10.44;72.78
15817;BME280;8009;50.070;8.232;2023-04-01T04:28:53;98214.41;;;10.50;73.43
15817;BME280;8009;50.070;8.232;2023-04-01T04:31:23;98216.53;;;10.38;72.01
15817;BME280;8009;50.070;8.232;2023-04-01T04:33:52;98204.59;;;10.49;73.40
15817;BME280;8009;50.070;8.232;2023-04-01T04:36:21;98208.94;;;10.68;72.82
15817;BME280;8009;50.070;8.232;2023-04-01T04:38:52;98216.94;;;10.52;72.92
15817;BME280;8009;50.070;8.232;2023-04-01T04:41:20;98210.59;;;10.61;72.69
15817;BME280;8009;50.070;8.232;2023-04-01T04:43:53;98216.16;;;10.59;72.24
15817;BME280;8009;50.070;8.232;2023-04-01T04:46:22;98211.72;;;10.76;71.57
15817;BME280;8009;50.070;8.232;2023-04-01T04:48:51;98219.41;;;10.71;72.52
15817;BME280;8009;50.070;8.232;2023-04-01T04:51:20;98214.78;;;10.89;71.27
15817;BME280;8009;50.070;8.232;2023-04-01T04:53:52;98218.19;;;10.57;72.67
15817;BME280;8009;50.070;8.232;2023-04-01T04:56:21;98214.59;;;10.57;73.56
15817;BME280;8009;50.070;8.232;2023-04-01T04:58:51;98213.31;;;10.35;73.38
15817;BME280;8009;50.070;8.232;2023-04-01T05:01:19;98218.44;;;10.46;73.21
15817;BME280;8009;50.070;8.232;2023-04-01T05:03:48;98214.06;;;10.79;72.47
15817;BME280;8009;50.070;8.232;2023-04-01T05:06:17;98221.28;;;10.70;72.72
15817;BME280;8009;50.070;8.232;2023-04-01T05:08:46;98219.03;;;10.58;73.59
15817;BME280;8009;50.070;8.232;2023-04-01T05:11:18;98213.88;;;10.46;73.35
15817;BME280;8009;50.070;8.232;2023-04-01T05:13:47;98218.59;;;10.44;72.71
15817;BME280;8009;50.070;8.232;2023-04-01T05:16:18;98224.25;;;10.15;74.34
15817;BME280;8009;50.070;8.232;2023-04-01T05:18:47;98219.59;;;10.43;73.14
15817;BME280;8009;50.070;8.232;2023-04-01T05:21:15;98220.31;;;10.45;72.72
15817;BME280;8009;50.070;8.232;2023-04-01T05:23:46;98218.09;;;10.49;73.09
15817;BME280;8009;50.070;8.232;2023-04-01T05:26:17;98213.97;;;10.63;72.45
15817;BME280;8009;50.070;8.232;2023-04-01T05:28:45;98212.38;;;10.52;72.48
15817;BME280;8009;50.070;8.232;2023-04-01T05:31:13;98215.00;;;10.62;72.41
15817;BME280;8009;50.070;8.232;2023-04-01T05:33:43;98215.47;;;10.57;72.36
15817;BME280;8009;50.070;8.232;2023-04-01T05:36:16;98217.00;;;10.60;71.57
15817;BME280;8009;50.070;8.232;2023-04-01T05:38:44;98213.81;;;10.64;71.99
15817;BME280;8009;50.070;8.232;2023-04-01T05:41:16;98214.28;;;10.60;72.08
15817;BME280;8009;50.070;8.232;2023-04-01T05:43:45;98209.22;;;10.57;71.39
15817;BME280;8009;50.070;8.232;2023-04-01T05:46:13;98215.72;;;10.72;71.08
15817;BME280;8009;50.070;8.232;2023-04-01T05:48:43;98208.88;;;10.86;70.62
15817;BME280;8009;50.070;8.232;2023-04-01T05:51:42;98216.63;;;10.55;71.91
15817;BME280;8009;50.070;8.232;2023-04-01T05:54:10;98211.09;;;10.64;71.31
15817;BME280;8009;50.070;8.232;2023-04-01T05:56:41;98217.06;;;10.42;72.65
15817;BME280;8009;50.070;8.232;2023-04-01T05:59:10;98213.66;;;10.66;72.52
15817;BME280;8009;50.070;8.232;2023-04-01T06:01:38;98214.59;;;10.57;71.13
15817;BME280;8009;50.070;8.232;2023-04-01T06:04:12;98214.69;;;10.65;70.29
15817;BME280;8009;50.070;8.232;2023-04-01T06:06:41;98210.13;;;10.65;71.94
15817;BME280;8009;50.070;8.232;2023-04-01T06:09:13;98210.44;;;10.62;71.59
15817;BME280;8009;50.070;8.232;2023-04-01T06:11:56;98209.50;;;10.45;71.52
15817;BME280;8009;50.070;8.232;2023-04-01T06:14:38;98207.00;;;10.52;71.79
15817;BME280;8009;50.070;8.232;2023-04-01T06:17:21;98206.06;;;10.35;71.99
15817;BME280;8009;50.070;8.232;2023-04-01T06:19:58;98214.28;;;10.60;71.76
15817;BME280;8009;50.070;8.232;2023-04-01T06:22:45;98205.63;;;10.48;71.52
15817;BME280;8009;50.070;8.232;2023-04-01T06:28:44;98212.47;;;11.03;70.83
15817;BME280;8009;50.070;8.232;2023-04-01T06:31:24;98204.03;;;10.63;71.30
15817;BME280;8009;50.070;8.232;2023-04-01T06:34:05;98209.13;;;10.40;72.08
15817;BME280;8009;50.070;8.232;2023-04-01T06:36:58;98210.97;;;10.66;71.79
15817;BME280;8009;50.070;8.232;2023-04-01T06:39:35;98219.78;;;10.24;74.31
15817;BME280;8009;50.070;8.232;2023-04-01T06:42:24;98214.16;;;10.61;72.65
15817;BME280;8009;50.070;8.232;2023-04-01T06:45:06;98212.28;;;10.36;73.82
15817;BME280;8009;50.070;8.232;2023-04-01T06:47:45;98214.94;;;10.28;74.93
15817;BME280;8009;50.070;8.232;2023-04-01T06:50:24;98223.19;;;10.08;75.63
15817;BME280;8009;50.070;8.232;2023-04-01T06:53:00;98217.38;;;10.39;75.93
15817;BME280;8009;50.070;8.232;2023-04-01T06:55:36;98213.09;;;10.54;76.07
15817;BME280;8009;50.070;8.232;2023-04-01T06:58:11;98219.25;;;10.38;76.59
15817;BME280;8009;50.070;8.232;2023-04-01T07:00:46;98219.25;;;10.38;77.06
15817;BME280;8009;50.070;8.232;2023-04-01T07:03:20;98221.94;;;10.38;77.03
15817;BME280;8009;50.070;8.232;2023-04-01T07:05:50;98225.28;;;9.96;79.19
15817;BME280;8009;50.070;8.232;2023-04-01T07:08:23;98222.91;;;10.37;77.34
15817;BME280;8009;50.070;8.232;2023-04-01T07:10:55;98227.47;;;10.63;77.87
15817;BME280;8009;50.070;8.232;2023-04-01T07:13:27;98226.09;;;10.15;80.28
15817;BME280;8009;50.070;8.232;2023-04-01T07:16:07;98221.63;;;10.23;80.82
15817;BME280;8009;50.070;8.232;2023-04-01T07:18:41;98225.72;;;10.10;79.92
15817;BME280;8009;50.070;8.232;2023-04-01T07:21:21;98219.25;;;10.38;78.37
15817;BME280;8009;50.070;8.232;2023-04-01T07:23:51;98224.03;;;10.27;78.84
15817;BME280;8009;50.070;8.232;2023-04-01T07:26:23;98232.41;;;10.23;78.85
15817;BME280;8009;50.070;8.232;2023-04-01T07:28:52;98240.50;;;10.06;80.66
15817;BME280;8009;50.070;8.232;2023-04-01T07:31:34;98232.72;;;10.38;80.16
15817;BME280;8009;50.070;8.232;2023-04-01T07:40:42;98228.75;;;11.11;77.85
15817;BME280;8009;50.070;8.232;2023-04-01T07:43:26;98226.94;;;10.85;78.48
15817;BME280;8009;50.070;8.232;2023-04-01T07:46:21;98230.91;;;10.73;78.69
15817;BME280;8009;50.070;8.232;2023-04-01T07:49:01;98235.31;;;11.08;78.89
15817;BME280;8009;50.070;8.232;2023-04-01T07:51:38;98235.66;;;10.79;79.26
15817;BME280;8009;50.070;8.232;2023-04-01T07:54:30;98250.25;;;10.94;77.73
15817;BME280;8009;50.070;8.232;2023-04-01T07:57:06;98242.97;;;10.87;77.21
15817;BME280;8009;50.070;8.232;2023-04-01T07:59:50;98255.16;;;10.39;78.93
15817;BME280;8009;50.070;8.232;2023-04-01T08:05:41;98255.41;;;11.14;77.55
15817;BME280;8009;50.070;8.232;2023-04-01T08:08:18;98250.88;;;11.14;77.48
15817;BME280;8009;50.070;8.232;2023-04-01T08:10:54;98249.38;;;11.20;78.08
15817;BME280;8009;50.070;8.232;2023-04-01T08:13:31;98255.34;;;10.71;78.18
15817;BME280;8009;50.070;8.232;2023-04-01T08:16:10;98254.72;;;10.78;79.31
15817;BME280;8009;50.070;8.232;2023-04-01T08:19:09;98260.78;;;11.06;78.46
15817;BME280;8009;50.070;8.232;2023-04-01T08:25:14;98268.59;;;10.83;78.90
15817;BME280;8009;50.070;8.232;2023-04-01T08:27:47;98271.19;;;10.66;81.37
15817;BME280;8009;50.070;8.232;2023-04-01T08:40:00;98280.34;;;10.73;81.38
15817;BME280;8009;50.070;8.232;2023-04-01T08:43:09;98276.84;;;11.07;80.76
15817;BME280;8009;50.070;8.232;2023-04-01T08:45:59;98284.59;;;11.10;82.27
15817;BME280;8009;50.070;8.232;2023-04-01T08:48:46;98277.19;;;11.12;81.07
15817;BME280;8009;50.070;8.232;2023-04-01T11:01:24;98315.59;;;12.50;82.08
15817;BME280;8009;50.070;8.232;2023-04-01T11:22:38;98331.31;;;12.62;80.83
15817;BME280;8009;50.070;8.232;2023-04-01T11:25:25;98324.53;;;12.50;80.13
15817;BME280;8009;50.070;8.232;2023-04-01T11:28:14;98335.53;;;12.65;79.26
15817;BME280;8009;50.070;8.232;2023-04-01T11:31:17;98329.97;;;12.50;80.60
15817;BME280;8009;50.070;8.232;2023-04-01T11:33:54;98331.66;;;12.59;81.11
15817;BME280;8009;50.070;8.232;2023-04-01T11:36:33;98334.03;;;12.46;80.56
15817;BME280;8009;50.070;8.232;2023-04-01T11:39:18;98342.97;;;12.30;82.02
15817;BME280;8009;50.070;8.232;2023-04-01T11:41:52;98339.28;;;12.64;80.45
15817;BME280;8009;50.070;8.232;2023-04-01T11:44:26;98337.94;;;12.52;82.20
15817;BME280;8009;50.070;8.232;2023-04-01T11:47:13;98340.59;;;12.19;81.70
15817;BME280;8009;50.070;8.232;2023-04-01T11:49:55;98342.63;;;12.74;80.25
15817;BME280;8009;50.070;8.232;2023-04-01T11:52:35;98351.28;;;12.53;81.02
15817;BME280;8009;50.070;8.232;2023-04-01T11:55:23;98358.56;;;12.61;81.73
15817;BME280;8009;50.070;8.232;2023-04-01T11:58:14;98365.25;;;12.08;83.76
15817;BME280;8009;50.070;8.232;2023-04-01T12:00:59;98359.94;;;11.90;83.94
15817;BME280;8009;50.070;8.232;2023-04-01T12:06:50;98380.69;;;12.24;82.38
15817;BME280;8009;50.070;8.232;2023-04-01T12:22:12;98387.50;;;12.44;83.16
15817;BME280;8009;50.070;8.232;2023-04-01T12:37:47;98382.59;;;12.64;83.33
15817;BME280;8009;50.070;8.232;2023-04-01T12:53:27;98389.84;;;12.47;84.86
15817;BME280;8009;50.070;8.232;2023-04-01T12:59:36;98397.44;;;12.43;83.65
15817;BME280;8009;50.070;8.232;2023-04-01T13:02:12;98384.94;;;12.51;84.37
15817;BME280;8009;50.070;8.232;2023-04-01T13:04:58;98396.47;;;12.69;84.80
15817;BME280;8009;50.070;8.232;2023-04-01T13:07:58;98396.31;;;12.95;83.21
15817;BME280;8009;50.070;8.232;2023-04-01T13:13:52;98399.03;;;12.71;84.43
15817;BME280;8009;50.070;8.232;2023-04-01T13:16:42;98403.22;;;12.89;83.79
15817;BME280;8009;50.070;8.232;2023-04-01T13:19:16;98406.09;;;12.47;84.02
15817;BME280;8009;50.070;8.232;2023-04-01T13:21:54;98406.59;;;12.51;84.87
15817;BME280;8009;50.070;8.232;2023-04-01T13:24:44;98413.03;;;12.58;84.08
15817;BME280;8009;50.070;8.232;2023-04-01T13:27:22;98412.84;;;12.35;84.18
15817;BME280;8009;50.070;8.232;2023-04-01T13:30:12;98413.19;;;12.40;84.53
15817;BME280;8009;50.070;8.232;2023-04-01T13:33:11;98411.28;;;12.32;84.90
15817;BME280;8009;50.070;8.232;2023-04-01T13:35:49;98430.59;;;12.29;84.52
15817;BME280;8009;50.070;8.232;2023-04-01T13:38:46;98425.00;;;12.31;85.30
15817;BME280;8009;50.070;8.232;2023-04-01T13:41:24;98405.50;;;12.03;86.42
15817;BME280;8009;50.070;8.232;2023-04-01T13:44:15;98416.53;;;12.26;85.31
15817;BME280;8009;50.070;8.232;2023-04-01T13:56:33;98424.06;;;12.64;82.53
15817;BME280;8009;50.070;8.232;2023-04-01T13:59:15;98426.53;;;12.25;83.33
15817;BME280;8009;50.070;8.232;2023-04-01T14:01:53;98432.09;;;12.32;83.50
15817;BME280;8009;50.070;8.232;2023-04-01T14:04:47;98435.72;;;12.57;83.86
15817;BME280;8009;50.070;8.232;2023-04-01T14:07:31;98436.56;;;12.49;83.67
15817;BME280;8009;50.070;8.232;2023-04-01T14:10:17;98433.03;;;12.65;83.00
15817;BME280;8009;50.070;8.232;2023-04-01T14:12:57;98441.28;;;12.55;83.04
15817;BME280;8009;50.070;8.232;2023-04-01T14:19:03;98443.00;;;12.56;82.45
15817;BME280;8009;50.070;8.232;2023-04-01T14:21:38;98444.97;;;12.30;83.67
15817;BME280;8009;50.070;8.232;2023-04-01T14:24:26;98439.56;;;12.38;82.99
15817;BME280;8009;50.070;8.232;2023-04-01T14:33:46;98441.94;;;11.90;84.84
15817;BME280;8009;50.070;8.232;2023-04-01T14:36:41;98457.72;;;12.03;85.06
15817;BME280;8009;50.070;8.232;2023-04-01T14:39:38;98448.81;;;12.19;84.51
15817;BME280;8009;50.070;8.232;2023-04-01T14:42:21;98452.34;;;12.11;84.03
15817;BME280;8009;50.070;8.232;2023-04-01T14:54:37;98474.03;;;12.19;85.05
15817;BME280;8009;50.070;8.232;2023-04-01T15:16:41;98481.03;;;12.47;81.47
15817;BME280;8009;50.070;8.232;2023-04-01T15:31:31;98491.38;;;12.51;79.49
15817;BME280;8009;50.070;8.232;2023-04-01T15:40:27;98506.31;;;12.63;81.54
15817;BME280;8009;50.070;8.232;2023-04-01T15:43:15;98510.13;;;12.36;81.72
15817;BME280;8009;50.070;8.232;2023-04-01T15:45:55;98511.34;;;12.58;81.39
15817;BME280;8009;50.070;8.232;2023-04-01T15:52:08;98520.78;;;12.04;84.58
15817;BME280;8009;50.070;8.232;2023-04-01T16:01:33;98528.47;;;11.90;85.11
15817;BME280;8009;50.070;8.232;2023-04-01T16:22:58;98555.06;;;11.95;85.22
15817;BME280;8009;50.070;8.232;2023-04-01T16:25:33;98545.41;;;11.92;84.43
15817;BME280;8009;50.070;8.232;2023-04-01T16:28:15;98561.00;;;11.99;85.29
15817;BME280;8009;50.070;8.232;2023-04-01T16:30:56;98562.91;;;12.06;85.06
15817;BME280;8009;50.070;8.232;2023-04-01T16:33:35;98559.81;;;12.01;85.93
15817;BME280;8009;50.070;8.232;2023-04-01T16:36:26;98562.38;;;12.03;85.45
15817;BME280;8009;50.070;8.232;2023-04-01T16:39:15;98579.03;;;11.90;84.21
15817;BME280;8009;50.070;8.232;2023-04-01T16:41:51;98567.66;;;11.60;84.03
15817;BME280;8009;50.070;8.232;2023-04-01T16:44:26;98580.59;;;11.75;83.19
15817;BME280;8009;50.070;8.232;2023-04-01T16:46:59;98579.25;;;11.79;83.87
15817;BME280;8009;50.070;8.232;2023-04-01T16:49:37;98584.25;;;11.65;83.49
15817;BME280;8009;50.070;8.232;2023-04-01T16:52:16;98587.13;;;11.46;83.65
15817;BME280;8009;50.070;8.232;2023-04-01T16:55:14;98593.19;;;11.22;85.19
15817;BME280;8009;50.070;8.232;2023-04-01T17:01:00;98604.03;;;11.48;83.56
15817;BME280;8009;50.070;8.232;2023-04-01T17:03:37;98606.41;;;11.69;82.81
15817;BME280;8009;50.070;8.232;2023-04-01T17:06:19;98610.13;;;11.68;83.41
15817;BME280;8009;50.070;8.232;2023-04-01T17:09:11;98617.94;;;11.53;83.34
15817;BME280;8009;50.070;8.232;2023-04-01T17:11:47;98619.88;;;11.61;82.47
15817;BME280;8009;50.070;8.232;2023-04-01T17:14:23;98619.81;;;11.53;83.23
15817;BME280;8009;50.070;8.232;2023-04-01T17:17:05;98625.41;;;11.59;83.08
15817;BME280;8009;50.070;8.232;2023-04-01T17:20:11;98625.50;;;11.14;84.06
15817;BME280;8009;50.070;8.232;2023-04-01T17:22:45;98625.38;;;11.33;84.01
15817;BME280;8009;50.070;8.232;2023-04-01T17:28:49;98622.91;;;11.22;85.27
15817;BME280;8009;50.070;8.232;2023-04-01T17:31:31;98634.16;;;11.53;83.75
15817;BME280;8009;50.070;8.232;2023-04-01T17:40:50;98654.94;;;11.35;86.09
15817;BME280;8009;50.070;8.232;2023-04-01T17:43:35;98651.44;;;11.07;86.79
15817;BME280;8009;50.070;8.232;2023-04-01T17:46:23;98664.47;;;11.11;87.26
15817;BME280;8009;50.070;8.232;2023-04-01T17:49:02;98665.66;;;11.27;86.85
15817;BME280;8009;50.070;8.232;2023-04-01T17:51:38;98665.72;;;11.17;86.90
15817;BME280;8009;50.070;8.232;2023-04-01T17:54:21;98670.22;;;11.26;86.14
15817;BME280;8009;50.070;8.232;2023-04-01T17:57:03;98673.75;;;11.27;85.80
15817;BME280;8009;50.070;8.232;2023-04-01T17:59:37;98675.47;;;11.28;85.14
15817;BME280;8009;50.070;8.232;2023-04-01T18:02:19;98674.31;;;11.03;85.82
15817;BME280;8009;50.070;8.232;2023-04-01T18:05:01;98678.53;;;11.33;85.63
15817;BME280;8009;50.070;8.232;2023-04-01T18:07:50;98689.59;;;11.39;85.06
15817;BME280;8009;50.070;8.232;2023-04-01T18:10:25;98690.56;;;11.20;85.88
15817;BME280;8009;50.070;8.232;2023-04-01T18:13:13;98702.84;;;11.15;85.49
15817;BME280;8009;50.070;8.232;2023-04-01T18:15:49;98691.97;;;11.25;84.79
15817;BME280;8009;50.070;8.232;2023-04-01T18:18:40;98698.78;;;11.01;85.22
15817;BME280;8009;50.070;8.232;2023-04-01T18:21:18;98698.28;;;11.15;85.24
15817;BME280;8009;50.070;8.232;2023-04-01T18:23:55;98706.09;;;11.36;84.62
15817;BME280;8009;50.070;8.232;2023-04-01T18:26:28;98700.56;;;11.38;84.07
15817;BME280;8009;50.070;8.232;2023-04-01T18:29:04;98707.19;;;11.26;83.19
15817;BME280;8009;50.070;8.232;2023-04-01T18:31:43;98710.59;;;11.28;83.68
15817;BME280;8009;50.070;8.232;2023-04-01T18:34:18;98717.78;;;11.09;84.17
15817;BME280;8009;50.070;8.232;2023-04-01T18:36:51;98726.44;;;11.13;83.11
15817;BME280;8009;50.070;8.232;2023-04-01T18:39:23;98729.34;;;11.02;84.14
15817;BME280;8009;50.070;8.232;2023-04-01T18:42:03;98727.47;;;11.12;83.38
15817;BME280;8009;50.070;8.232;2023-04-01T18:44:45;98736.72;;;11.09;83.36
15817;BME280;8009;50.070;8.232;2023-04-01T18:47:24;98734.28;;;11.06;83.93
15817;BME280;8009;50.070;8.232;2023-04-01T18:49:58;98741.97;;;11.11;84.06
15817;BME280;8009;50.070;8.232;2023-04-01T18:52:33;98749.09;;;11.02;84.00
15817;BME280;8009;50.070;8.232;2023-04-01T18:55:24;98754.09;;;11.07;83.12
15817;BME280;8009;50.070;8.232;2023-04-01T18:58:11;98761.00;;;10.82;84.97
15817;BME280;8009;50.070;8.232;2023-04-01T19:00:48;98763.41;;;10.85;84.34
15817;BME280;8009;50.070;8.232;2023-04-01T19:03:21;98767.16;;;11.02;84.01
15817;BME280;8009;50.070;8.232;2023-04-01T19:05:53;98765.84;;;10.78;84.67
15817;BME280;8009;50.070;8.232;2023-04-01T19:08:27;98772.00;;;10.98;84.50
15817;BME280;8009;50.070;8.232;2023-04-01T19:11:04;98774.88;;;10.96;84.60
15817;BME280;8009;50.070;8.232;2023-04-01T19:13:54;98791.53;;;10.92;84.31
15817;BME280;8009;50.070;8.232;2023-04-01T19:16:37;98792.38;;;10.92;84.44
15817;BME280;8009;50.070;8.232;2023-04-01T19:19:20;98798.03;;;10.42;86.36
15817;BME280;8009;50.070;8.232;2023-04-01T19:21:55;98791.44;;;10.64;86.07
15817;BME280;8009;50.070;8.232;2023-04-01T19:24:46;98799.19;;;10.30;87.14
15817;BME280;8009;50.070;8.232;2023-04-01T19:27:29;98794.34;;;10.43;86.50
15817;BME280;8009;50.070;8.232;2023-04-01T19:30:21;98797.13;;;10.71;85.73
15817;BME280;8009;50.070;8.232;2023-04-01T19:33:03;98811.63;;;10.70;85.32